Time;durP1;ratioP1;P1;durP2;ratioP2;P2;SDS_P1;SDS_P2;PMS_P1;PMS_P2;Temp;Humidity;BMP_temperature;BMP_pressure;BME280_temperature;BME280_humidity;BME280_pressure;Samples;Min_cycle;Max_cycle;Signal;HPM_P1;HPM_P2
2020/12/14 00:02:25;;;;;;;7.63;6.97;;;5.40;99.90;;;;;;5076499;28;20396;-55
2020/12/14 00:04:52;;;;;;;5.97;5.57;;;5.40;99.90;;;;;;5075991;28;20427;-55
2020/12/14 00:07:19;;;;;;;6.20;5.63;;;5.40;99.90;;;;;;5076148;28;20459;-54
2020/12/14 00:09:45;;;;;;;5.70;5.10;;;5.40;99.90;;;;;;5075620;28;20461;-57
2020/12/14 00:12:10;;;;;;;6.10;5.60;;;5.40;99.90;;;;;;5090405;28;20479;-57
2020/12/14 00:14:36;;;;;;;6.07;5.40;;;5.30;99.90;;;;;;5096769;28;20411;-57
2020/12/14 00:17:02;;;;;;;7.43;6.80;;;5.20;99.90;;;;;;5095944;28;20525;-58
2020/12/14 00:19:27;;;;;;;7.00;6.33;;;5.20;99.90;;;;;;5096157;28;20180;-55
2020/12/14 00:21:53;;;;;;;7.00;5.83;;;5.10;99.90;;;;;;5095985;28;20195;-55
2020/12/14 00:24:21;;;;;;;5.93;5.37;;;5.00;99.90;;;;;;5090840;28;20300;-56
2020/12/14 00:26:48;;;;;;;6.93;6.30;;;5.00;99.90;;;;;;5075571;28;20420;-54
2020/12/14 00:29:14;;;;;;;6.93;6.23;;;4.90;99.90;;;;;;5075882;28;20876;-54
2020/12/14 00:31:39;;;;;;;7.73;6.40;;;4.90;99.90;;;;;;5075817;28;20470;-55
2020/12/14 00:34:05;;;;;;;6.33;5.73;;;4.80;99.90;;;;;;5075574;28;20166;-58
2020/12/14 00:36:30;;;;;;;7.00;6.30;;;4.90;99.90;;;;;;5075668;28;20218;-55
2020/12/14 00:38:56;;;;;;;8.17;6.40;;;5.00;99.90;;;;;;5075120;28;20581;-57
2020/12/14 00:41:22;;;;;;;7.60;6.90;;;5.10;99.90;;;;;;5075192;28;20166;-55
2020/12/14 00:43:48;;;;;;;7.53;6.83;;;5.10;99.90;;;;;;5075499;28;20259;-58
2020/12/14 00:46:15;;;;;;;6.80;6.20;;;5.10;99.90;;;;;;5075323;28;20174;-54
2020/12/14 00:48:41;;;;;;;6.90;6.20;;;5.00;99.90;;;;;;5075239;28;20416;-56
2020/12/14 00:51:07;;;;;;;7.00;6.40;;;5.00;99.90;;;;;;5075117;28;20758;-56
2020/12/14 00:53:34;;;;;;;6.60;6.00;;;5.10;99.90;;;;;;5075101;28;20416;-64
2020/12/14 00:56:03;;;;;;;9.40;8.50;;;5.20;99.90;;;;;;5074963;28;20919;-57
2020/12/14 00:58:30;;;;;;;8.30;7.50;;;5.40;99.90;;;;;;5074993;28;20791;-58
2020/12/14 01:00:55;;;;;;;8.53;7.73;;;5.50;99.90;;;;;;5075078;28;20975;-55
2020/12/14 01:03:21;;;;;;;7.07;6.23;;;5.60;99.90;;;;;;5075274;28;20470;-59
2020/12/14 01:05:47;;;;;;;7.07;6.30;;;5.50;99.90;;;;;;5074933;28;20435;-58
2020/12/14 01:08:13;;;;;;;8.17;7.47;;;5.50;99.90;;;;;;5085839;28;20194;-56
2020/12/14 01:10:38;;;;;;;8.20;6.93;;;5.50;99.90;;;;;;5074394;28;20170;-57
2020/12/14 01:13:04;;;;;;;7.17;6.57;;;5.50;99.90;;;;;;5074337;28;20666;-56
2020/12/14 01:15:29;;;;;;;7.40;6.70;;;5.50;99.90;;;;;;5074712;28;20202;-57
2020/12/14 01:17:55;;;;;;;7.87;7.07;;;5.40;99.90;;;;;;5074666;28;20188;-58
2020/12/14 01:20:20;;;;;;;8.23;7.30;;;5.40;99.90;;;;;;5074418;28;20182;-58
2020/12/14 01:22:46;;;;;;;7.27;6.57;;;5.30;99.90;;;;;;5074538;28;20253;-59
2020/12/14 01:25:12;;;;;;;7.67;6.90;;;5.30;99.90;;;;;;5074435;28;20194;-57
2020/12/14 01:27:37;;;;;;;8.27;7.47;;;5.30;99.90;;;;;;5074347;28;20201;-59
2020/12/14 01:30:04;;;;;;;8.40;7.70;;;5.30;99.90;;;;;;5074851;28;20523;-59
2020/12/14 01:32:29;;;;;;;6.63;6.07;;;5.30;99.90;;;;;;5074335;28;20225;-58
2020/12/14 01:34:55;;;;;;;6.87;6.27;;;5.30;99.90;;;;;;5074623;28;20474;-59
2020/12/14 01:37:20;;;;;;;8.37;7.00;;;5.20;99.90;;;;;;5074283;28;20192;-58
2020/12/14 01:39:46;;;;;;;6.40;5.80;;;5.20;99.90;;;;;;5074528;28;20198;-54
2020/12/14 01:42:12;;;;;;;8.67;7.47;;;5.20;99.90;;;;;;5074022;28;20178;-56
2020/12/14 01:44:37;;;;;;;6.80;5.73;;;5.20;99.90;;;;;;5073398;28;20607;-57
2020/12/14 01:47:03;;;;;;;7.23;6.53;;;5.20;99.90;;;;;;5074444;28;20201;-54
2020/12/14 01:49:30;;;;;;;8.43;6.53;;;5.20;99.90;;;;;;5073244;28;20178;-55
2020/12/14 01:51:56;;;;;;;7.23;6.03;;;5.30;99.90;;;;;;5074705;28;20244;-54
2020/12/14 01:54:36;;;;;;;6.90;6.20;;;5.30;99.90;;;;;;5074093;28;20420;-56
2020/12/14 01:57:02;;;;;;;6.53;6.00;;;5.20;99.90;;;;;;5074364;28;20860;-57
2020/12/14 01:59:28;;;;;;;6.80;6.20;;;5.20;99.90;;;;;;5072853;28;20412;-57
2020/12/14 02:01:54;;;;;;;9.40;7.10;;;5.30;99.90;;;;;;5074058;28;20403;-57
2020/12/14 02:04:19;;;;;;;7.30;6.50;;;5.30;99.90;;;;;;5074531;28;20184;-55
2020/12/14 02:06:45;;;;;;;6.93;6.23;;;5.40;99.90;;;;;;5074227;28;20198;-58
2020/12/14 02:09:10;;;;;;;8.23;7.40;;;5.40;99.90;;;;;;5082108;28;20169;-58
2020/12/14 02:11:36;;;;;;;8.30;7.60;;;5.30;99.90;;;;;;5094131;28;20189;-58
2020/12/14 02:14:02;;;;;;;8.00;7.20;;;5.20;99.90;;;;;;5092299;28;20759;-58
2020/12/14 02:16:28;;;;;;;9.20;7.40;;;5.10;99.90;;;;;;5094105;28;20177;-58
2020/12/14 02:18:54;;;;;;;7.93;7.13;;;5.00;99.90;;;;;;5094716;28;20804;-58
2020/12/14 02:21:19;;;;;;;8.33;7.43;;;4.70;99.90;;;;;;5094248;28;20423;-55
2020/12/14 02:23:45;;;;;;;8.77;7.10;;;4.70;99.90;;;;;;5094765;28;20208;-57
2020/12/14 02:26:11;;;;;;;6.50;5.63;;;4.70;99.90;;;;;;5074738;28;20642;-55
2020/12/14 02:28:37;;;;;;;8.40;7.60;;;4.80;99.90;;;;;;5073941;28;20658;-57
2020/12/14 02:31:03;;;;;;;6.50;5.90;;;4.80;99.90;;;;;;5074121;28;20186;-58
2020/12/14 02:33:29;;;;;;;7.20;5.90;;;5.00;99.90;;;;;;5074198;28;20407;-57
2020/12/14 02:35:54;;;;;;;7.67;6.93;;;5.00;99.90;;;;;;5074325;28;20169;-57
2020/12/14 02:38:21;;;;;;;7.87;7.07;;;5.00;99.90;;;;;;5074125;28;20633;-55
2020/12/14 02:40:47;;;;;;;8.10;7.30;;;4.90;99.90;;;;;;5073952;28;20395;-56
2020/12/14 02:43:13;;;;;;;6.70;6.10;;;4.90;99.90;;;;;;5077746;28;20952;-57
2020/12/14 02:45:38;;;;;;;8.13;7.40;;;5.00;99.90;;;;;;5077770;28;20479;-57
2020/12/14 02:48:04;;;;;;;6.80;6.10;;;4.90;99.90;;;;;;5076994;28;20658;-58
2020/12/14 02:50:30;;;;;;;6.80;6.20;;;5.00;99.90;;;;;;5077769;28;20202;-57
2020/12/14 02:52:56;;;;;;;9.23;8.33;;;4.90;99.90;;;;;;5074065;28;20509;-57
2020/12/14 02:55:22;;;;;;;8.63;7.40;;;4.90;99.90;;;;;;5073911;28;20173;-56
2020/12/14 02:57:48;;;;;;;7.40;6.70;;;4.90;99.90;;;;;;5075802;28;20524;-58
2020/12/14 03:00:14;;;;;;;10.20;7.63;;;4.90;99.90;;;;;;5077665;28;20407;-57
2020/12/14 03:02:39;;;;;;;7.83;7.03;;;5.00;99.90;;;;;;5077666;28;20174;-57
2020/12/14 03:05:05;;;;;;;7.87;7.07;;;5.00;99.90;;;;;;5076827;28;20184;-57
2020/12/14 03:07:30;;;;;;;8.00;7.20;;;4.90;99.90;;;;;;5077479;28;20193;-57
2020/12/14 03:09:56;;;;;;;7.60;6.80;;;5.00;99.90;;;;;;5076262;28;20158;-58
2020/12/14 03:12:21;;;;;;;8.40;7.60;;;4.90;99.90;;;;;;5072763;28;20661;-58
2020/12/14 03:14:47;;;;;;;7.70;7.00;;;4.90;99.90;;;;;;5072429;28;20162;-58
2020/12/14 03:17:12;;;;;;;8.10;7.13;;;4.90;99.90;;;;;;5072755;28;20685;-58
2020/12/14 03:19:38;;;;;;;9.10;7.87;;;4.70;99.90;;;;;;5072814;28;20263;-58
2020/12/14 03:22:04;;;;;;;7.80;6.60;;;4.60;99.90;;;;;;5073248;28;20173;-54
2020/12/14 03:24:29;;;;;;;7.17;6.43;;;4.70;99.90;;;;;;5072733;28;20650;-54
2020/12/14 03:26:55;;;;;;;7.67;6.87;;;4.50;99.90;;;;;;5072877;28;20269;-54
2020/12/14 03:29:20;;;;;;;7.20;6.47;;;4.60;99.90;;;;;;5073024;28;20196;-57
2020/12/14 03:31:46;;;;;;;7.97;6.70;;;4.70;99.90;;;;;;5072737;28;20216;-54
2020/12/14 03:34:12;;;;;;;8.33;6.73;;;4.70;99.90;;;;;;5073542;28;20166;-54
2020/12/14 03:36:38;;;;;;;8.80;7.57;;;4.70;99.90;;;;;;5073145;28;20194;-58
2020/12/14 03:39:03;;;;;;;7.83;6.67;;;4.70;99.90;;;;;;5072912;28;20742;-58
2020/12/14 03:41:29;;;;;;;7.13;6.40;;;4.60;99.90;;;;;;5072342;28;20196;-58
2020/12/14 03:43:55;;;;;;;8.07;7.37;;;4.60;99.90;;;;;;5072573;28;20728;-54
2020/12/14 03:46:25;;;;;;;9.13;8.07;;;4.60;99.90;;;;;;5072737;28;20169;-54
2020/12/14 03:48:58;;;;;;;9.17;8.27;;;4.60;99.90;;;;;;5073942;28;20147;-57
2020/12/14 03:51:24;;;;;;;7.77;6.97;;;4.50;99.90;;;;;;5074642;28;20439;-56
2020/12/14 03:53:50;;;;;;;8.50;7.40;;;4.40;99.90;;;;;;5073537;28;20400;-51
2020/12/14 03:56:23;;;;;;;8.43;7.63;;;4.40;99.90;;;;;;5072049;28;20407;-56
2020/12/14 03:58:49;;;;;;;8.60;7.70;;;4.30;99.90;;;;;;5076216;28;20548;-53
2020/12/14 04:01:21;;;;;;;8.90;7.17;;;4.30;99.90;;;;;;5095243;28;20496;-58
2020/12/14 04:03:47;;;;;;;8.37;7.57;;;4.30;99.90;;;;;;5095065;28;20410;-54
2020/12/14 04:06:23;;;;;;;8.20;7.40;;;4.20;99.90;;;;;;5096191;28;20403;-53
2020/12/14 04:08:50;;;;;;;7.90;7.13;;;4.10;99.90;;;;;;5096302;28;20168;-53
2020/12/14 04:11:16;;;;;;;7.43;6.70;;;4.10;99.90;;;;;;5095653;28;20396;-58
2020/12/14 04:13:42;;;;;;;7.30;6.53;;;4.10;99.90;;;;;;5097088;28;20817;-60
2020/12/14 04:16:08;;;;;;;7.73;6.90;;;4.10;99.90;;;;;;5116744;28;20401;-58
2020/12/14 04:18:35;;;;;;;8.17;7.37;;;4.20;99.90;;;;;;5100425;28;20424;-58
2020/12/14 04:21:00;;;;;;;7.97;7.17;;;4.00;99.90;;;;;;5096419;28;20814;-57
2020/12/14 04:23:26;;;;;;;8.97;8.07;;;4.10;99.90;;;;;;5095992;28;20403;-58
2020/12/14 04:25:51;;;;;;;8.67;7.73;;;4.00;99.90;;;;;;5079523;28;20181;-61
2020/12/14 04:28:17;;;;;;;8.27;7.43;;;4.10;99.90;;;;;;5075665;28;20209;-56
2020/12/14 04:30:42;;;;;;;9.50;8.07;;;4.00;99.90;;;;;;5075572;28;20206;-57
2020/12/14 04:33:08;;;;;;;7.83;7.03;;;4.00;99.90;;;;;;5075667;28;20186;-58
2020/12/14 04:35:34;;;;;;;7.70;7.00;;;3.90;99.90;;;;;;5075492;28;20198;-57
2020/12/14 04:37:59;;;;;;;6.40;5.80;;;3.80;99.90;;;;;;5075460;28;20193;-56
2020/12/14 04:40:29;;;;;;;7.80;6.63;;;3.70;99.90;;;;;;5075277;28;20181;-54
2020/12/14 04:43:00;;;;;;;7.00;6.30;;;3.80;99.90;;;;;;5075055;28;20173;-58
2020/12/14 04:45:29;;;;;;;7.00;6.33;;;3.60;99.90;;;;;;5074857;28;20396;-55
2020/12/14 04:47:58;;;;;;;6.20;5.60;;;3.80;99.90;;;;;;5075229;28;20424;-58
2020/12/14 04:50:25;;;;;;;7.17;6.47;;;3.70;99.90;;;;;;5075375;28;20400;-56
2020/12/14 04:52:52;;;;;;;8.40;7.23;;;3.70;99.90;;;;;;5075416;28;20447;-57
2020/12/14 04:55:22;;;;;;;7.33;6.27;;;3.70;99.90;;;;;;5081400;28;20407;-57
2020/12/14 04:57:49;;;;;;;6.50;5.30;;;3.70;99.90;;;;;;5074878;28;20431;-53
2020/12/14 05:00:16;;;;;;;7.60;6.80;;;3.80;99.90;;;;;;5075049;28;20403;-58
2020/12/14 05:02:41;;;;;;;5.53;5.03;;;3.80;99.90;;;;;;5075225;28;20427;-58
2020/12/14 05:05:14;;;;;;;7.27;6.37;;;3.80;99.90;;;;;;5074955;28;20412;-58
2020/12/14 05:07:41;;;;;;;6.63;5.93;;;3.70;99.90;;;;;;5074747;28;20227;-58
2020/12/14 05:10:07;;;;;;;6.40;5.63;;;3.60;99.90;;;;;;5074531;28;20404;-58
2020/12/14 05:12:39;;;;;;;6.17;5.57;;;3.70;99.90;;;;;;5074046;28;20549;-57
2020/12/14 05:15:18;;;;;;;6.77;6.10;;;3.70;99.90;;;;;;5072876;28;20393;-54
2020/12/14 05:17:43;;;;;;;6.73;5.00;;;3.60;99.90;;;;;;5074813;28;20408;-58
2020/12/14 05:20:13;;;;;;;7.17;6.30;;;3.60;99.90;;;;;;5074484;28;20432;-58
2020/12/14 05:22:53;;;;;;;7.00;5.97;;;3.70;99.90;;;;;;5073384;28;20180;-58
2020/12/14 05:25:18;;;;;;;6.43;5.70;;;3.70;99.90;;;;;;5074388;28;20404;-58
2020/12/14 05:27:44;;;;;;;7.10;6.13;;;3.70;99.90;;;;;;5074134;28;20431;-58
2020/12/14 05:30:16;;;;;;;9.70;8.23;;;3.80;99.90;;;;;;5073187;28;20180;-56
2020/12/14 05:32:41;;;;;;;8.77;7.77;;;3.80;99.90;;;;;;5074675;28;20292;-54
2020/12/14 05:35:11;;;;;;;8.47;7.30;;;3.80;99.90;;;;;;5074845;28;20481;-57
2020/12/14 05:37:38;;;;;;;7.17;6.20;;;3.60;99.90;;;;;;5074192;28;20207;-53
2020/12/14 05:40:12;;;;;;;5.93;5.17;;;3.60;99.90;;;;;;5073949;28;20977;-54
2020/12/14 05:42:42;;;;;;;7.20;6.10;;;3.50;99.90;;;;;;5074308;28;20392;-58
2020/12/14 05:45:11;;;;;;;6.37;5.70;;;3.50;99.90;;;;;;5074143;28;20416;-58
2020/12/14 05:47:41;;;;;;;8.97;7.10;;;3.50;99.90;;;;;;5074162;28;20424;-54
2020/12/14 05:50:09;;;;;;;7.40;6.50;;;3.60;99.90;;;;;;5074063;28;20490;-58
2020/12/14 05:52:44;;;;;;;7.90;7.10;;;3.60;99.90;;;;;;5074238;28;20883;-56
2020/12/14 05:55:10;;;;;;;7.80;7.00;;;3.50;99.90;;;;;;5078807;28;20466;-58
2020/12/14 05:57:36;;;;;;;7.67;6.80;;;3.60;99.90;;;;;;5073887;28;20462;-58
2020/12/14 06:00:10;;;;;;;8.93;6.77;;;3.60;99.90;;;;;;5073962;28;20159;-58
2020/12/14 06:02:37;;;;;;;7.53;6.73;;;3.60;99.90;;;;;;5074432;28;20950;-58
2020/12/14 06:05:05;;;;;;;9.93;7.73;;;3.60;99.90;;;;;;5074303;28;20403;-57
2020/12/14 06:07:32;;;;;;;12.40;7.17;;;3.60;99.90;;;;;;5074044;28;20840;-55
2020/12/14 06:10:04;;;;;;;8.13;7.10;;;3.70;99.90;;;;;;5095609;28;20945;-58
2020/12/14 06:12:31;;;;;;;8.87;7.80;;;3.70;99.90;;;;;;5093794;28;20450;-56
2020/12/14 06:15:02;;;;;;;8.23;7.43;;;3.50;99.90;;;;;;5093804;28;20431;-58
2020/12/14 06:17:28;;;;;;;10.00;9.00;;;3.50;99.90;;;;;;5094345;28;20462;-58
2020/12/14 06:20:02;;;;;;;8.13;7.40;;;3.50;99.90;;;;;;5094068;28;20941;-58
2020/12/14 06:22:30;;;;;;;7.33;6.63;;;3.60;99.90;;;;;;5093377;28;20149;-57
2020/12/14 06:24:59;;;;;;;9.17;6.90;;;3.50;99.90;;;;;;5085213;28;20416;-58
2020/12/14 06:27:27;;;;;;;7.40;6.40;;;3.70;99.90;;;;;;5073506;28;20427;-56
2020/12/14 06:29:53;;;;;;;9.80;7.77;;;3.70;99.90;;;;;;5073953;28;20761;-57
2020/12/14 06:32:37;;;;;;;8.77;7.90;;;3.70;99.90;;;;;;5073824;28;20455;-57
2020/12/14 06:35:04;;;;;;;7.90;6.47;;;3.70;99.90;;;;;;5072366;28;20176;-53
2020/12/14 06:37:51;;;;;;;8.13;7.33;;;3.60;99.90;;;;;;5074032;28;20771;-57
2020/12/14 06:40:17;;;;;;;8.63;6.90;;;3.70;99.90;;;;;;5073439;28;20384;-58
2020/12/14 06:42:43;;;;;;;9.50;8.20;;;3.80;99.90;;;;;;5074161;28;20492;-58
2020/12/14 06:45:10;;;;;;;11.53;8.63;;;3.80;99.90;;;;;;5072297;28;20434;-55
2020/12/14 06:47:42;;;;;;;9.43;8.20;;;3.80;99.90;;;;;;5073817;28;20251;-56
2020/12/14 06:50:27;;;;;;;7.97;7.00;;;3.90;99.90;;;;;;5073434;28;20392;-60
2020/12/14 06:52:53;;;;;;;9.40;8.30;;;3.80;99.90;;;;;;5080666;28;20450;-58
2020/12/14 06:55:40;;;;;;;11.80;8.83;;;3.70;99.90;;;;;;5076774;28;20938;-57
2020/12/14 06:58:09;;;;;;;9.70;8.17;;;3.70;99.90;;;;;;5073354;28;20282;-56
2020/12/14 07:00:34;;;;;;;14.13;9.80;;;3.70;99.90;;;;;;5073484;28;20396;-57
2020/12/14 07:03:00;;;;;;;10.67;9.10;;;3.70;99.90;;;;;;5072455;28;20403;-58
2020/12/14 07:05:28;;;;;;;13.97;10.27;;;3.70;99.90;;;;;;5073648;28;20246;-56
2020/12/14 07:07:55;;;;;;;13.80;10.57;;;3.70;99.90;;;;;;5073079;28;20596;-54
2020/12/14 07:10:28;;;;;;;14.23;9.87;;;3.80;99.90;;;;;;5073104;28;20476;-53
2020/12/14 07:12:54;;;;;;;14.10;11.20;;;3.70;99.90;;;;;;5073542;28;20957;-53
2020/12/14 07:15:27;;;;;;;13.70;10.87;;;3.80;99.90;;;;;;5074659;28;20400;-54
2020/12/14 07:18:07;;;;;;;13.27;11.00;;;3.80;99.90;;;;;;5076128;28;20425;-56
2020/12/14 07:20:35;;;;;;;12.20;10.73;;;3.90;99.90;;;;;;5075536;28;20954;-54
2020/12/14 07:23:04;;;;;;;16.60;12.60;;;3.80;99.90;;;;;;5076044;28;20403;-54
2020/12/14 07:25:32;;;;;;;16.20;12.23;;;3.70;99.90;;;;;;5074046;28;20493;-58
2020/12/14 07:27:58;;;;;;;14.67;11.27;;;3.80;99.90;;;;;;5074092;28;20916;-58
2020/12/14 07:30:23;;;;;;;12.20;10.53;;;3.70;99.90;;;;;;5072976;28;20414;-57
2020/12/14 07:32:49;;;;;;;13.60;10.83;;;3.70;99.90;;;;;;5072003;28;20201;-58
2020/12/14 07:35:15;;;;;;;13.23;10.17;;;3.90;99.90;;;;;;5075635;28;20214;-56
2020/12/14 07:37:41;;;;;;;12.50;10.73;;;4.00;99.90;;;;;;5076409;28;20558;-56
2020/12/14 07:40:12;;;;;;;13.13;11.67;;;4.10;99.90;;;;;;5076553;28;20158;-56
2020/12/14 07:42:44;;;;;;;12.70;10.90;;;4.20;99.90;;;;;;5076658;28;20390;-55
2020/12/14 07:45:09;;;;;;;14.50;11.73;;;4.10;99.90;;;;;;5076803;28;20388;-58
2020/12/14 07:47:35;;;;;;;16.40;11.10;;;4.10;99.90;;;;;;5076508;28;20946;-54
2020/12/14 07:50:15;;;;;;;14.77;11.10;;;4.00;99.90;;;;;;5076223;28;20173;-58
2020/12/14 07:52:42;;;;;;;13.70;11.73;;;4.20;99.90;;;;;;5076335;28;20970;-57
2020/12/14 07:55:10;;;;;;;17.20;12.60;;;4.20;99.90;;;;;;5076135;28;20445;-57
2020/12/14 07:57:46;;;;;;;16.40;12.90;;;4.30;99.90;;;;;;5076122;28;20429;-55
2020/12/14 08:00:15;;;;;;;12.63;10.57;;;4.40;99.90;;;;;;5076001;28;20460;-58
2020/12/14 08:02:42;;;;;;;14.23;10.47;;;4.40;99.90;;;;;;5076292;28;20412;-59
2020/12/14 08:05:11;;;;;;;17.90;12.40;;;4.60;99.90;;;;;;5076706;28;20518;-59
2020/12/14 08:07:52;;;;;;;13.10;11.70;;;4.60;99.90;;;;;;5075203;28;20489;-57
2020/12/14 08:10:32;;;;;;;17.50;12.73;;;4.70;99.90;;;;;;5083090;28;20399;-58
2020/12/14 08:13:17;;;;;;;13.20;11.80;;;4.60;99.90;;;;;;5096663;28;20457;-55
2020/12/14 08:15:43;;;;;;;12.57;10.03;;;4.70;99.90;;;;;;5096766;28;20376;-55
2020/12/14 08:18:09;;;;;;;18.00;12.97;;;4.80;99.90;;;;;;5097118;28;20454;-55
2020/12/14 08:20:39;;;;;;;14.20;11.97;;;4.90;99.90;;;;;;5096252;28;20423;-54
2020/12/14 08:23:16;;;;;;;13.10;11.10;;;4.90;99.90;;;;;;5095857;28;20420;-54
2020/12/14 08:25:45;;;;;;;15.33;11.87;;;4.80;99.90;;;;;;5081544;28;20483;-56
2020/12/14 08:28:10;;;;;;;12.60;11.30;;;4.70;99.90;;;;;;5075965;28;20443;-55
2020/12/14 08:30:39;;;;;;;13.40;11.30;;;4.80;99.90;;;;;;5075635;28;20401;-55
2020/12/14 08:33:09;;;;;;;15.47;12.30;;;4.80;99.90;;;;;;5076910;28;20202;-57
2020/12/14 08:35:42;;;;;;;13.37;9.90;;;4.80;99.90;;;;;;5075775;28;20411;-58
2020/12/14 08:38:15;;;;;;;15.10;12.47;;;4.90;99.90;;;;;;5076021;28;20853;-59
2020/12/14 08:41:03;;;;;;;21.00;14.93;;;5.00;99.90;;;;;;5075167;28;20380;-57
2020/12/14 08:43:30;;;;;;;12.83;11.47;;;5.00;99.90;;;;;;5076082;28;20385;-56
2020/12/14 08:46:10;;;;;;;14.40;12.90;;;5.10;99.90;;;;;;5075020;28;20872;-58
2020/12/14 08:49:01;;;;;;;14.50;11.33;;;5.10;99.90;;;;;;5075850;28;20818;-58
2020/12/14 08:51:30;;;;;;;14.30;12.57;;;5.00;99.90;;;;;;5075384;28;20486;-57
2020/12/14 08:54:13;;;;;;;11.27;9.60;;;5.10;99.90;;;;;;5075554;28;20825;-57
2020/12/14 08:56:40;;;;;;;14.33;11.93;;;5.20;99.90;;;;;;5075314;28;20447;-57
2020/12/14 08:59:16;;;;;;;14.90;11.00;;;5.30;99.90;;;;;;5074733;28;20810;-57
2020/12/14 09:02:02;;;;;;;12.50;10.57;;;5.10;99.90;;;;;;5075604;28;20755;-57
2020/12/14 09:04:32;;;;;;;16.17;12.77;;;5.20;99.90;;;;;;5075267;28;20384;-58
2020/12/14 09:06:59;;;;;;;16.60;12.10;;;5.30;99.90;;;;;;5075638;28;20803;-58
2020/12/14 09:09:35;;;;;;;13.10;11.73;;;5.30;99.90;;;;;;5075639;28;20491;-57
2020/12/14 09:12:02;;;;;;;13.07;11.67;;;5.40;99.90;;;;;;5074575;28;20444;-58
2020/12/14 09:14:32;;;;;;;10.63;9.53;;;5.40;99.90;;;;;;5075131;28;20454;-58
2020/12/14 09:17:00;;;;;;;13.83;11.00;;;5.50;99.90;;;;;;5075140;28;20416;-56
2020/12/14 09:19:28;;;;;;;16.17;12.23;;;5.60;99.90;;;;;;5074794;28;20420;-58
2020/12/14 09:21:55;;;;;;;15.30;12.07;;;5.60;99.90;;;;;;5074833;28;20457;-57
2020/12/14 09:24:25;;;;;;;12.90;11.33;;;5.60;99.90;;;;;;5077551;28;20454;-58
2020/12/14 09:26:52;;;;;;;16.87;12.83;;;5.60;99.90;;;;;;5094860;28;20434;-55
2020/12/14 09:29:18;;;;;;;18.73;13.03;;;5.60;99.90;;;;;;5094980;28;20926;-57
2020/12/14 09:31:50;;;;;;;22.00;15.90;;;5.70;99.90;;;;;;5094902;28;20435;-58
2020/12/14 09:34:16;;;;;;;19.50;15.23;;;5.80;99.90;;;;;;5095213;28;20315;-58
2020/12/14 09:36:42;;;;;;;17.50;13.50;;;5.90;99.90;;;;;;5094683;28;20445;-58
2020/12/14 09:39:07;;;;;;;12.73;10.93;;;6.00;99.90;;;;;;5094834;28;20231;-57
2020/12/14 09:41:33;;;;;;;14.93;11.70;;;6.00;99.90;;;;;;5094389;28;20247;-55
2020/12/14 09:43:59;;;;;;;13.00;11.33;;;6.00;99.90;;;;;;5094287;28;20518;-57
2020/12/14 09:46:26;;;;;;;12.20;10.43;;;6.20;99.90;;;;;;5085809;28;20173;-57
2020/12/14 09:48:53;;;;;;;12.57;10.87;;;6.40;99.90;;;;;;5074386;28;20422;-57
2020/12/14 09:51:19;;;;;;;15.97;11.97;;;6.40;99.90;;;;;;5073845;28;20477;-57
2020/12/14 09:53:45;;;;;;;12.63;10.93;;;6.60;99.90;;;;;;5073397;28;20901;-57
2020/12/14 09:56:11;;;;;;;10.60;9.37;;;6.70;99.90;;;;;;5073285;28;20253;-57
2020/12/14 09:58:37;;;;;;;11.97;10.73;;;6.90;99.90;;;;;;5073789;28;20811;-56
2020/12/14 10:01:02;;;;;;;11.13;10.03;;;7.10;99.90;;;;;;5074068;28;20209;-59
2020/12/14 10:03:28;;;;;;;11.23;9.40;;;7.40;99.90;;;;;;5074151;28;20248;-57
2020/12/14 10:05:53;;;;;;;14.03;10.40;;;7.60;99.90;;;;;;5084091;28;20165;-58
2020/12/14 10:08:19;;;;;;;8.90;7.93;;;7.80;99.90;;;;;;5093779;28;20226;-58
2020/12/14 10:10:45;;;;;;;8.50;7.70;;;7.80;99.90;;;;;;5093627;28;20169;-57
2020/12/14 10:13:11;;;;;;;8.17;7.20;;;7.90;99.90;;;;;;5093568;28;20191;-59
2020/12/14 10:15:37;;;;;;;9.87;8.87;;;8.30;99.90;;;;;;5094088;28;20244;-57
2020/12/14 10:18:03;;;;;;;9.60;8.60;;;8.80;99.90;;;;;;5094208;28;20519;-57
2020/12/14 10:20:29;;;;;;;8.17;7.43;;;9.10;99.90;;;;;;5093764;28;20191;-59
2020/12/14 10:22:55;;;;;;;7.67;6.97;;;9.10;99.90;;;;;;5092605;28;20620;-57
2020/12/14 10:25:21;;;;;;;7.13;6.47;;;9.30;99.90;;;;;;5081758;28;20466;-58
2020/12/14 10:27:47;;;;;;;7.70;6.83;;;9.60;99.90;;;;;;5073128;28;20211;-58
2020/12/14 10:30:13;;;;;;;9.23;7.17;;;9.70;99.90;;;;;;5073353;28;20419;-58
2020/12/14 10:32:38;;;;;;;8.13;7.20;;;9.70;99.90;;;;;;5073365;28;20200;-56
2020/12/14 10:35:04;;;;;;;9.30;7.60;;;9.70;99.90;;;;;;5074030;28;20173;-55
2020/12/14 10:37:29;;;;;;;6.60;6.03;;;10.00;99.90;;;;;;5073594;28;20187;-57
2020/12/14 10:39:55;;;;;;;7.00;6.37;;;10.30;99.90;;;;;;5076041;28;20177;-53
2020/12/14 10:42:20;;;;;;;7.20;6.40;;;10.20;99.90;;;;;;5074056;28;20172;-57
2020/12/14 10:44:46;;;;;;;6.53;5.90;;;10.00;99.90;;;;;;5075454;28;20181;-55
2020/12/14 10:47:12;;;;;;;7.87;5.90;;;10.30;99.90;;;;;;5073719;28;20293;-59
2020/12/14 10:49:37;;;;;;;9.60;6.60;;;10.60;99.90;;;;;;5072973;28;20629;-59
2020/12/14 10:52:03;;;;;;;7.73;7.03;;;10.50;99.90;;;;;;5072810;28;20634;-57
2020/12/14 10:54:29;;;;;;;8.03;6.83;;;10.70;99.90;;;;;;5072803;28;20220;-54
2020/12/14 10:56:56;;;;;;;7.00;6.30;;;10.80;99.90;;;;;;5073019;28;20461;-57
2020/12/14 10:59:22;;;;;;;7.13;6.50;;;11.00;99.90;;;;;;5073002;28;20411;-60
2020/12/14 11:01:51;;;;;;;7.33;6.57;;;10.90;99.90;;;;;;5073062;28;20445;-55
2020/12/14 11:04:19;;;;;;;7.23;6.53;;;10.50;99.90;;;;;;5073008;28;20419;-56
2020/12/14 11:06:45;;;;;;;9.47;5.77;;;10.70;99.90;;;;;;5072968;28;20523;-54
2020/12/14 11:09:10;;;;;;;6.63;6.03;;;10.60;99.90;;;;;;5074400;28;20458;-56
2020/12/14 11:11:36;;;;;;;6.20;5.60;;;10.70;99.90;;;;;;5076629;28;20205;-54
2020/12/14 11:14:02;;;;;;;6.67;5.80;;;10.80;99.90;;;;;;5076935;28;20518;-55
2020/12/14 11:16:28;;;;;;;9.80;7.80;;;11.10;99.90;;;;;;5077142;28;20170;-56
2020/12/14 11:18:54;;;;;;;6.20;5.60;;;11.40;99.90;;;;;;5076839;28;20913;-55
2020/12/14 11:21:21;;;;;;;6.47;5.87;;;11.60;99.90;;;;;;5077660;28;20427;-55
2020/12/14 11:23:47;;;;;;;5.50;5.00;;;11.50;99.90;;;;;;5077022;28;20170;-57
2020/12/14 11:26:13;;;;;;;6.53;5.30;;;11.60;99.90;;;;;;5076592;28;20466;-55
2020/12/14 11:28:39;;;;;;;5.07;4.63;;;11.60;99.90;;;;;;5076793;28;20170;-56
2020/12/14 11:31:06;;;;;;;8.00;4.87;;;11.60;99.90;;;;;;5075549;28;20420;-55
2020/12/14 11:33:32;;;;;;;6.00;5.50;;;11.90;99.90;;;;;;5076862;28;20452;-54
2020/12/14 11:35:57;;;;;;;6.13;5.53;;;11.80;99.90;;;;;;5077056;28;20818;-55
2020/12/14 11:38:23;;;;;;;6.23;5.63;;;11.70;99.90;;;;;;5076516;28;20191;-55
2020/12/14 11:40:48;;;;;;;7.90;6.17;;;11.60;99.90;;;;;;5076378;28;20178;-55
2020/12/14 11:43:14;;;;;;;7.73;6.80;;;11.60;99.90;;;;;;5076147;28;20167;-57
2020/12/14 11:45:41;;;;;;;7.33;6.63;;;11.40;99.90;;;;;;5075850;28;20224;-55
2020/12/14 11:48:07;;;;;;;7.13;6.53;;;11.40;99.90;;;;;;5076772;28;20430;-55
2020/12/14 11:50:32;;;;;;;6.77;6.07;;;11.60;99.90;;;;;;5077568;28;20770;-53
2020/12/14 11:52:58;;;;;;;8.03;6.47;;;11.80;99.90;;;;;;5082493;28;20198;-58
2020/12/14 11:55:24;;;;;;;7.83;6.70;;;11.90;99.90;;;;;;5081916;28;20170;-57
2020/12/14 11:57:49;;;;;;;6.60;6.00;;;11.80;99.90;;;;;;5081877;28;20661;-57
2020/12/14 12:00:15;;;;;;;5.70;5.20;;;11.50;99.90;;;;;;5081489;28;20184;-56
2020/12/14 12:02:41;;;;;;;6.10;5.50;;;11.80;99.90;;;;;;5082558;28;20175;-57
2020/12/14 12:05:06;;;;;;;6.23;5.50;;;12.00;99.90;;;;;;5081649;28;20170;-56
2020/12/14 12:07:32;;;;;;;7.70;5.80;;;12.00;99.90;;;;;;5098665;28;20246;-54
2020/12/14 12:09:57;;;;;;;6.97;5.63;;;11.90;99.90;;;;;;5101687;28;20175;-58
2020/12/14 12:12:23;;;;;;;6.03;5.43;;;12.10;99.90;;;;;;5101430;28;20191;-58
2020/12/14 12:14:49;;;;;;;6.10;5.60;;;12.40;99.90;;;;;;5101497;28;20177;-57
2020/12/14 12:17:14;;;;;;;6.90;5.57;;;12.60;99.90;;;;;;5101237;28;20699;-58
2020/12/14 12:19:40;;;;;;;5.40;4.90;;;12.90;99.90;;;;;;5101849;28;20243;-56
2020/12/14 12:22:05;;;;;;;6.13;4.90;;;13.10;99.90;;;;;;5101602;28;20257;-55
2020/12/14 12:24:31;;;;;;;5.30;4.80;;;13.00;99.90;;;;;;5096807;28;20192;-54
2020/12/14 12:26:57;;;;;;;7.93;5.20;;;13.30;99.90;;;;;;5080475;28;20236;-56
2020/12/14 12:29:23;;;;;;;5.70;5.20;;;13.10;99.90;;;;;;5081545;28;20660;-53
2020/12/14 12:31:54;;;;;;;5.83;5.20;;;12.90;99.90;;;;;;5082777;28;20290;-56
2020/12/14 12:34:20;;;;;;;5.60;5.10;;;12.90;99.90;;;;;;5081853;28;20399;-58
2020/12/14 12:36:50;;;;;;;5.13;4.63;;;12.80;99.90;;;;;;5080801;28;20420;-54
2020/12/14 12:39:16;;;;;;;5.77;5.20;;;13.10;99.90;;;;;;5088389;28;20176;-57
2020/12/14 12:41:50;;;;;;;6.23;5.70;;;13.10;99.90;;;;;;5102197;28;20988;-54
2020/12/14 12:44:16;;;;;;;7.80;5.60;;;12.80;99.90;;;;;;5101708;28;20711;-57
2020/12/14 12:46:42;;;;;;;7.37;5.20;;;12.40;99.90;;;;;;5101133;28;20430;-58
2020/12/14 12:49:09;;;;;;;7.83;7.03;;;12.20;99.90;;;;;;5100953;28;20408;-57
2020/12/14 12:51:34;;;;;;;7.17;6.47;;;12.20;99.90;;;;;;5101147;28;20171;-55
2020/12/14 12:54:01;;;;;;;6.00;5.40;;;12.20;99.90;;;;;;5099928;28;20744;-57